Time;durP1;ratioP1;P1;durP2;ratioP2;P2;SDS_P1;SDS_P2;PMS_P1;PMS_P2;Temp;Humidity;BMP_temperature;BMP_pressure;BME280_temperature;BME280_humidity;BME280_pressure;Samples;Min_cycle;Max_cycle;Signal;HPM_P1;HPM_P2
2022/10/24 00:00:45;;;;;;;9.88;8.88;;;16.20;99.90;;;;;;6268564;22;20006;-64
2022/10/24 00:03:12;;;;;;;10.80;9.70;;;16.20;99.90;;;;;;6296376;22;20332;-65
2022/10/24 00:05:42;;;;;;;10.65;9.65;;;16.20;99.90;;;;;;6295453;22;20007;-64
2022/10/24 00:08:08;;;;;;;10.27;9.30;;;16.20;99.90;;;;;;6268367;22;20011;-65
2022/10/24 00:10:35;;;;;;;10.20;9.23;;;16.20;99.90;;;;;;6294201;22;20004;-64
2022/10/24 00:13:01;;;;;;;10.52;9.52;;;16.20;99.90;;;;;;6293624;22;20007;-64
2022/10/24 00:15:26;;;;;;;11.20;10.13;;;16.20;99.90;;;;;;6291725;22;20065;-65
2022/10/24 00:17:52;;;;;;;10.85;9.82;;;16.20;99.90;;;;;;6296471;22;20082;-64
2022/10/24 00:20:17;;;;;;;10.35;9.35;;;16.20;99.90;;;;;;6293200;22;20041;-65
2022/10/24 00:22:43;;;;;;;10.63;9.63;;;16.20;99.90;;;;;;6295858;22;20015;-65
2022/10/24 00:25:09;;;;;;;11.13;10.02;;;16.20;99.90;;;;;;6292603;22;20070;-65
2022/10/24 00:27:35;;;;;;;12.10;10.95;;;16.20;99.90;;;;;;6293988;22;20005;-65
2022/10/24 00:30:02;;;;;;;11.43;10.20;;;16.20;99.90;;;;;;6295823;22;20076;-65
2022/10/24 00:32:28;;;;;;;11.85;10.60;;;16.20;99.90;;;;;;6296907;22;20003;-64
2022/10/24 00:34:53;;;;;;;11.48;10.38;;;16.20;99.90;;;;;;6296224;22;20746;-65
2022/10/24 00:37:20;;;;;;;12.55;10.98;;;16.10;99.90;;;;;;6297354;22;20033;-78
2022/10/24 00:39:45;;;;;;;12.07;10.82;;;16.10;99.90;;;;;;6296116;22;20006;-78
2022/10/24 00:42:11;;;;;;;11.85;10.65;;;16.10;99.90;;;;;;6295846;22;20464;-78
2022/10/24 00:44:40;;;;;;;11.68;10.57;;;16.10;99.90;;;;;;6293713;22;20135;-78
2022/10/24 00:47:17;;;;;;;11.63;10.43;;;16.10;99.90;;;;;;6293735;22;20007;-78
2022/10/24 00:49:59;;;;;;;11.95;10.82;;;16.00;99.90;;;;;;6292511;22;20002;-78
2022/10/24 00:52:29;;;;;;;;;;;15.90;99.90;;;;;;6292103;22;20117;-77
2022/10/24 00:54:57;;;;;;;12.00;10.82;;;15.90;99.90;;;;;;6292385;22;19909;-78
2022/10/24 00:57:52;;;;;;;13.00;11.80;;;15.90;99.90;;;;;;6292983;22;20060;-78
2022/10/24 01:00:24;;;;;;;12.85;11.65;;;15.80;99.90;;;;;;6287935;22;20421;-78
2022/10/24 01:02:50;;;;;;;;;;;15.80;99.90;;;;;;6294241;22;20986;-78
2022/10/24 01:05:17;;;;;;;12.93;11.73;;;15.80;99.90;;;;;;6294346;22;19902;-78
2022/10/24 01:07:58;;;;;;;12.95;11.65;;;15.80;99.90;;;;;;6294976;22;20008;-77
2022/10/24 01:10:39;;;;;;;13.23;11.93;;;15.80;99.90;;;;;;6291247;22;20086;-77
2022/10/24 01:13:04;;;;;;;14.05;12.80;;;15.80;99.90;;;;;;6293378;22;20440;-77
2022/10/24 01:15:52;;;;;;;14.48;12.98;;;15.80;99.90;;;;;;6294400;22;20018;-77
2022/10/24 01:18:40;;;;;;;13.68;12.38;;;15.80;99.90;;;;;;6267241;22;20068;-77
2022/10/24 01:21:23;;;;;;;13.20;11.95;;;15.80;99.90;;;;;;6292335;22;20015;-78
2022/10/24 01:24:02;;;;;;;14.45;12.88;;;15.80;99.90;;;;;;6293500;22;20003;-78
2022/10/24 01:27:02;;;;;;;14.18;12.75;;;15.80;99.90;;;;;;6292458;22;20003;-78
2022/10/24 01:30:02;;;;;;;14.73;13.23;;;15.80;99.90;;;;;;6294798;22;20007;-78
2022/10/24 01:32:33;;;;;;;15.43;13.82;;;15.90;99.90;;;;;;6296332;22;20100;-78
2022/10/24 01:35:22;;;;;;;15.02;13.52;;;15.80;99.90;;;;;;6295804;22;20177;-78
2022/10/24 01:37:59;;;;;;;15.95;14.27;;;15.80;99.90;;;;;;6295142;22;20041;-78
2022/10/24 01:40:34;;;;;;;15.63;14.13;;;15.80;99.90;;;;;;6294506;22;20003;-78
2022/10/24 01:43:06;;;;;;;15.90;14.40;;;15.80;99.90;;;;;;6294872;22;20007;-78
2022/10/24 01:45:35;;;;;;;15.27;13.68;;;15.80;99.90;;;;;;6292281;22;19995;-77
2022/10/24 01:48:04;;;;;;;15.32;13.73;;;15.80;99.90;;;;;;6295514;22;20018;-76
2022/10/24 01:50:32;;;;;;;16.15;14.50;;;15.80;99.90;;;;;;6296658;22;20006;-77
2022/10/24 01:52:59;;;;;;;15.77;14.18;;;15.70;99.90;;;;;;6269997;22;20015;-77
2022/10/24 01:55:24;;;;;;;14.20;12.80;;;15.70;99.90;;;;;;6294872;22;20007;-77
2022/10/24 01:57:50;;;;;;;14.65;13.15;;;15.70;99.90;;;;;;6294916;22;20080;-76
2022/10/24 02:00:21;;;;;;;16.75;14.43;;;15.60;99.90;;;;;;6294733;22;20031;-76
2022/10/24 02:03:11;;;;;;;14.90;13.40;;;15.70;99.90;;;;;;6294824;22;20635;-75
2022/10/24 02:05:45;;;;;;;15.23;13.68;;;15.70;99.90;;;;;;6294279;22;20000;-76
2022/10/24 02:08:17;;;;;;;15.43;13.57;;;15.70;99.90;;;;;;6295333;22;20010;-76
2022/10/24 02:10:55;;;;;;;14.65;13.07;;;15.70;99.90;;;;;;6295675;22;20681;-78
2022/10/24 02:13:36;;;;;;;15.52;13.93;;;15.70;99.90;;;;;;6292622;22;20007;-75
2022/10/24 02:16:03;;;;;;;16.65;14.85;;;15.70;99.90;;;;;;6268464;22;20116;-76
2022/10/24 02:18:30;;;;;;;17.98;14.35;;;15.60;99.90;;;;;;6294577;22;20003;-76
2022/10/24 02:21:07;;;;;;;16.45;14.50;;;15.60;99.90;;;;;;6291516;22;20098;-76
2022/10/24 02:23:56;;;;;;;15.88;14.27;;;15.60;99.90;;;;;;6293370;22;20400;-77
2022/10/24 02:26:42;;;;;;;16.30;14.57;;;15.60;99.90;;;;;;6293315;22;20099;-77
2022/10/24 02:29:13;;;;;;;17.40;14.63;;;15.60;99.90;;;;;;6267159;22;20082;-77
2022/10/24 02:31:42;;;;;;;16.70;14.93;;;15.60;99.90;;;;;;6294835;22;20006;-77
2022/10/24 02:34:10;;;;;;;18.83;15.40;;;15.50;99.90;;;;;;6295207;22;20010;-77
2022/10/24 02:36:39;;;;;;;16.85;15.07;;;15.60;99.90;;;;;;6295403;22;19999;-75
2022/10/24 02:39:07;;;;;;;18.58;16.33;;;15.60;99.90;;;;;;6294484;22;20004;-76
2022/10/24 02:41:36;;;;;;;22.75;15.77;;;15.60;99.90;;;;;;6293319;22;20007;-77
2022/10/24 02:44:03;;;;;;;19.70;15.05;;;15.60;99.90;;;;;;6295654;22;20093;-77
2022/10/24 02:46:30;;;;;;;17.55;14.65;;;15.50;99.90;;;;;;6293689;22;20447;-76
2022/10/24 02:49:01;;;;;;;20.98;15.05;;;15.50;99.90;;;;;;6296575;22;20060;-77
2022/10/24 02:51:34;;;;;;;19.30;15.38;;;15.50;99.90;;;;;;6293742;22;20018;-77
2022/10/24 02:54:00;;;;;;;21.58;16.50;;;15.60;99.90;;;;;;6241341;22;19999;-77
2022/10/24 02:56:27;;;;;;;19.67;16.33;;;15.50;99.90;;;;;;6291823;22;20505;-77
2022/10/24 02:58:52;;;;;;;20.63;16.52;;;15.40;99.90;;;;;;6293278;22;20082;-77
2022/10/24 03:01:18;;;;;;;21.33;17.08;;;15.40;99.90;;;;;;6292874;22;20216;-77
2022/10/24 03:03:44;;;;;;;22.98;15.90;;;15.30;99.90;;;;;;6293395;22;20030;-77
2022/10/24 03:06:09;;;;;;;21.15;16.65;;;15.30;99.90;;;;;;6291329;22;20003;-78
2022/10/24 03:08:35;;;;;;;24.50;17.35;;;15.30;99.90;;;;;;6293496;22;20007;-78
2022/10/24 03:11:00;;;;;;;21.50;16.13;;;15.30;99.90;;;;;;6291884;22;20038;-65
2022/10/24 03:13:26;;;;;;;25.70;17.70;;;15.30;99.90;;;;;;6290220;22;20007;-65
2022/10/24 03:15:52;;;;;;;22.00;17.98;;;15.30;99.90;;;;;;6293418;22;20003;-65
2022/10/24 03:18:17;;;;;;;24.35;17.85;;;15.30;99.90;;;;;;6291509;22;20324;-66
2022/10/24 03:20:43;;;;;;;25.35;18.63;;;15.30;99.90;;;;;;6291643;22;20015;-65
2022/10/24 03:23:09;;;;;;;22.73;18.23;;;15.30;99.90;;;;;;6293170;22;20011;-65
2022/10/24 03:25:34;;;;;;;27.30;19.90;;;15.20;99.90;;;;;;6265051;22;20046;-65
2022/10/24 03:28:00;;;;;;;25.27;20.10;;;15.20;99.90;;;;;;6293409;22;20003;-64
2022/10/24 03:30:25;;;;;;;23.00;16.98;;;15.20;99.90;;;;;;6292746;22;20567;-65
2022/10/24 03:32:51;;;;;;;25.88;19.65;;;15.20;99.90;;;;;;6293772;22;20027;-65
2022/10/24 03:35:17;;;;;;;23.77;18.60;;;15.20;99.90;;;;;;6292045;22;20778;-65
2022/10/24 03:37:42;;;;;;;24.27;19.38;;;15.20;99.90;;;;;;6290974;22;20083;-65
2022/10/24 03:40:09;;;;;;;25.23;18.80;;;15.30;99.90;;;;;;6292475;22;20033;-65
2022/10/24 03:42:35;;;;;;;26.05;19.77;;;15.20;99.90;;;;;;6292780;22;20053;-65
2022/10/24 03:45:01;;;;;;;26.38;20.50;;;15.20;99.90;;;;;;6293668;22;20018;-65
2022/10/24 03:47:27;;;;;;;26.92;21.33;;;15.20;99.90;;;;;;6293176;22;20003;-65
2022/10/24 03:49:52;;;;;;;30.38;20.50;;;15.20;99.90;;;;;;6293304;22;19996;-65
2022/10/24 03:52:18;;;;;;;26.27;20.98;;;15.20;99.90;;;;;;6265669;22;20007;-65
2022/10/24 03:54:44;;;;;;;26.70;21.10;;;15.20;99.90;;;;;;6295332;22;20058;-65
2022/10/24 03:57:10;;;;;;;25.13;20.35;;;15.20;99.90;;;;;;6294481;22;19995;-65
2022/10/24 03:59:36;;;;;;;27.25;20.02;;;15.10;99.90;;;;;;6294623;22;20009;-65
2022/10/24 04:02:02;;;;;;;27.60;20.85;;;15.10;99.90;;;;;;6294572;22;20042;-65
2022/10/24 04:04:28;;;;;;;26.83;20.60;;;15.10;99.90;;;;;;6292932;22;20031;-65
2022/10/24 04:06:54;;;;;;;31.50;23.75;;;15.00;99.90;;;;;;6294584;22;20045;-65
2022/10/24 04:09:20;;;;;;;31.95;23.73;;;15.00;99.90;;;;;;6293771;22;20009;-65
2022/10/24 04:11:46;;;;;;;25.92;20.98;;;15.10;99.90;;;;;;6286850;22;20007;-65
2022/10/24 04:14:12;;;;;;;34.30;23.23;;;15.00;99.90;;;;;;6293930;22;20079;-65
2022/10/24 04:16:38;;;;;;;37.80;26.13;;;15.00;99.90;;;;;;6292423;22;20436;-65
2022/10/24 04:19:04;;;;;;;32.17;23.90;;;14.90;99.90;;;;;;6295235;22;20048;-65
2022/10/24 04:21:30;;;;;;;32.33;23.17;;;14.90;99.90;;;;;;6294070;22;20456;-64
2022/10/24 04:23:56;;;;;;;29.00;22.95;;;14.90;99.90;;;;;;6294425;22;20003;-65
2022/10/24 04:26:21;;;;;;;32.30;22.90;;;14.90;99.90;;;;;;6295320;22;20003;-65
2022/10/24 04:28:47;;;;;;;28.35;22.73;;;14.90;99.90;;;;;;6296133;22;20007;-64
2022/10/24 04:31:14;;;;;;;28.83;22.65;;;14.90;99.90;;;;;;6295243;22;20003;-66
2022/10/24 04:33:39;;;;;;;29.50;22.95;;;14.80;99.90;;;;;;6296854;22;20124;-65
2022/10/24 04:36:05;;;;;;;27.13;21.98;;;14.80;99.90;;;;;;6294864;22;20041;-65
2022/10/24 04:38:30;;;;;;;29.25;22.15;;;14.80;99.90;;;;;;6296358;22;20038;-65
2022/10/24 04:40:56;;;;;;;30.92;22.88;;;14.80;99.90;;;;;;6294589;22;20056;-66
2022/10/24 04:43:22;;;;;;;30.60;22.77;;;14.80;99.90;;;;;;6295863;22;20094;-65
2022/10/24 04:45:48;;;;;;;31.27;22.77;;;14.80;99.90;;;;;;6295021;22;20003;-65
2022/10/24 04:48:15;;;;;;;30.42;22.30;;;14.80;99.90;;;;;;6295480;22;20369;-68
2022/10/24 04:50:42;;;;;;;28.63;22.33;;;14.80;99.90;;;;;;6294029;22;20086;-66
2022/10/24 04:53:08;;;;;;;29.92;23.25;;;14.80;99.90;;;;;;6293251;22;20082;-66
2022/10/24 04:55:34;;;;;;;34.40;24.42;;;14.90;99.90;;;;;;6294113;22;20045;-65
2022/10/24 04:58:00;;;;;;;35.10;25.15;;;14.90;99.90;;;;;;6295698;22;20052;-65
2022/10/24 05:00:26;;;;;;;32.45;23.75;;;14.80;99.90;;;;;;6294463;22;20003;-65
2022/10/24 05:02:51;;;;;;;32.03;24.02;;;14.80;99.90;;;;;;6286350;22;20019;-65
2022/10/24 05:05:17;;;;;;;30.48;21.92;;;14.80;99.90;;;;;;6289343;22;20382;-74
2022/10/24 05:07:44;;;;;;;31.73;22.20;;;14.70;99.90;;;;;;6291553;22;20010;-75
2022/10/24 05:10:10;;;;;;;30.70;21.83;;;14.70;99.90;;;;;;6291830;22;20344;-75
2022/10/24 05:12:35;;;;;;;28.55;21.30;;;14.70;99.90;;;;;;6292637;22;19996;-76
2022/10/24 05:15:01;;;;;;;33.83;22.80;;;14.70;99.90;;;;;;6293583;22;20022;-75
2022/10/24 05:17:27;;;;;;;34.42;23.63;;;14.70;99.90;;;;;;6289429;22;20007;-74
2022/10/24 05:19:53;;;;;;;30.50;22.70;;;14.80;99.90;;;;;;6294434;22;20014;-75
2022/10/24 05:22:19;;;;;;;32.58;23.55;;;14.70;99.90;;;;;;6286244;22;20026;-74
2022/10/24 05:24:44;;;;;;;32.58;22.85;;;14.70;99.90;;;;;;6293234;22;19996;-66
2022/10/24 05:27:10;;;;;;;35.90;23.30;;;14.70;99.90;;;;;;6289938;22;20060;-69
2022/10/24 05:29:35;;;;;;;33.83;23.13;;;14.70;99.90;;;;;;6294300;22;20754;-70
2022/10/24 05:32:01;;;;;;;36.65;23.58;;;14.70;99.90;;;;;;6290085;22;20707;-70
2022/10/24 05:34:27;;;;;;;37.20;24.00;;;14.60;99.90;;;;;;6293784;22;20082;-66
2022/10/24 05:36:53;;;;;;;35.67;23.63;;;14.50;99.90;;;;;;6292777;22;20007;-66
2022/10/24 05:39:19;;;;;;;30.58;23.45;;;14.50;99.90;;;;;;6288390;22;20034;-66
2022/10/24 05:41:44;;;;;;;32.15;22.63;;;14.60;99.90;;;;;;6287459;22;20045;-66
2022/10/24 05:44:11;;;;;;;34.13;22.88;;;14.60;99.90;;;;;;6291310;22;20003;-71
2022/10/24 05:46:37;;;;;;;39.60;23.52;;;14.60;99.90;;;;;;6291335;22;20010;-66
2022/10/24 05:49:03;;;;;;;35.25;25.30;;;14.60;99.90;;;;;;6292578;22;20003;-66
2022/10/24 05:51:28;;;;;;;37.10;24.73;;;14.50;99.90;;;;;;6293068;22;20029;-65
2022/10/24 05:53:54;;;;;;;38.83;24.23;;;14.50;99.90;;;;;;6294792;22;20011;-66
2022/10/24 05:56:20;;;;;;;31.55;22.20;;;14.50;99.90;;;;;;6290812;22;19999;-66
2022/10/24 05:58:45;;;;;;;36.95;23.77;;;14.50;99.90;;;;;;6263545;22;20018;-66
2022/10/24 06:01:11;;;;;;;33.42;22.42;;;14.50;99.90;;;;;;6288155;22;20011;-66
2022/10/24 06:03:38;;;;;;;35.55;23.45;;;14.50;99.90;;;;;;6291711;22;20997;-66
2022/10/24 06:06:07;;;;;;;32.83;21.42;;;14.50;99.90;;;;;;6292158;22;20011;-66
2022/10/24 06:08:37;;;;;;;29.92;21.15;;;14.50;99.90;;;;;;6294127;22;20011;-66
2022/10/24 06:11:03;;;;;;;30.23;20.80;;;14.50;99.90;;;;;;6286210;22;19999;-66
2022/10/24 06:13:29;;;;;;;33.85;21.92;;;14.50;99.90;;;;;;6289804;22;20476;-66
2022/10/24 06:15:54;;;;;;;33.17;20.75;;;14.50;99.90;;;;;;6288143;22;20083;-66
2022/10/24 06:18:20;;;;;;;28.48;20.17;;;14.50;99.90;;;;;;6282500;22;20116;-66
2022/10/24 06:20:45;;;;;;;28.60;19.75;;;14.50;99.90;;;;;;6287982;22;20498;-78
2022/10/24 06:23:11;;;;;;;32.00;21.25;;;14.60;99.90;;;;;;6292282;22;20076;-76
2022/10/24 06:25:40;;;;;;;28.90;20.15;;;14.60;99.90;;;;;;6293203;22;20325;-74
2022/10/24 06:28:06;;;;;;;28.17;21.17;;;14.60;99.90;;;;;;6292211;22;20448;-73
2022/10/24 06:30:32;;;;;;;27.45;19.42;;;14.70;99.90;;;;;;6293234;22;20000;-74
2022/10/24 06:32:59;;;;;;;30.98;20.15;;;14.60;99.90;;;;;;6265772;22;20513;-75
2022/10/24 06:35:24;;;;;;;28.27;20.30;;;14.60;99.90;;;;;;6288905;22;20432;-74
2022/10/24 06:37:50;;;;;;;29.95;20.67;;;14.60;99.90;;;;;;6290800;22;20015;-74
2022/10/24 06:40:17;;;;;;;30.15;19.65;;;14.60;99.90;;;;;;6288988;22;20006;-75
2022/10/24 06:42:43;;;;;;;32.47;19.67;;;14.60;99.90;;;;;;6293157;22;20069;-75
2022/10/24 06:45:09;;;;;;;30.50;19.55;;;14.60;99.90;;;;;;6290764;22;20074;-75
2022/10/24 06:47:34;;;;;;;31.23;20.00;;;14.60;99.90;;;;;;6290243;22;20420;-76
2022/10/24 06:50:00;;;;;;;25.70;19.35;;;14.70;99.90;;;;;;6287515;22;20014;-76
2022/10/24 06:52:26;;;;;;;29.25;19.65;;;14.70;99.90;;;;;;6293902;22;20088;-76
2022/10/24 06:54:51;;;;;;;25.05;19.77;;;14.80;99.90;;;;;;6291838;22;20003;-76
2022/10/24 06:57:17;;;;;;;30.63;20.23;;;14.70;99.90;;;;;;6292791;22;20026;-76
2022/10/24 06:59:43;;;;;;;33.08;19.98;;;14.70;99.90;;;;;;6292973;22;20523;-65
2022/10/24 07:02:12;;;;;;;33.67;22.75;;;14.70;99.90;;;;;;6289718;22;20011;-66
2022/10/24 07:04:38;;;;;;;31.63;21.45;;;14.70;99.90;;;;;;6286688;22;20003;-65
2022/10/24 07:07:03;;;;;;;32.25;20.52;;;14.60;99.90;;;;;;6290282;22;20030;-65
2022/10/24 07:09:29;;;;;;;32.65;22.35;;;14.60;99.90;;;;;;6290136;22;20473;-65
2022/10/24 07:11:55;;;;;;;36.78;21.88;;;14.60;99.90;;;;;;6292546;22;20070;-66
2022/10/24 07:14:21;;;;;;;34.65;21.77;;;14.60;99.90;;;;;;6291711;22;20015;-65
2022/10/24 07:16:46;;;;;;;30.88;21.88;;;14.60;99.90;;;;;;6284382;22;20004;-65
2022/10/24 07:19:12;;;;;;;32.33;21.27;;;14.70;99.90;;;;;;6259212;22;20746;-66
2022/10/24 07:21:38;;;;;;;32.88;21.65;;;14.70;99.90;;;;;;6285187;22;20102;-66
2022/10/24 07:24:04;;;;;;;32.05;21.67;;;14.70;99.90;;;;;;6291591;22;20078;-64
2022/10/24 07:26:31;;;;;;;35.95;23.13;;;14.70;99.90;;;;;;6290493;22;20014;-66
2022/10/24 07:29:00;;;;;;;28.90;21.50;;;14.70;99.90;;;;;;6287593;22;20004;-64
2022/10/24 07:31:29;;;;;;;33.33;21.88;;;14.60;99.90;;;;;;6282134;22;20030;-65
2022/10/24 07:33:55;;;;;;;35.65;22.60;;;14.60;99.90;;;;;;6290682;22;20715;-64
2022/10/24 07:36:24;;;;;;;31.95;21.73;;;14.70;99.90;;;;;;6292707;22;20007;-64
2022/10/24 07:38:51;;;;;;;30.23;20.90;;;14.70;99.90;;;;;;6296318;22;20003;-64
2022/10/24 07:41:17;;;;;;;33.90;22.77;;;14.70;99.90;;;;;;6292797;22;20011;-65
2022/10/24 07:43:44;;;;;;;29.75;20.55;;;14.70;99.90;;;;;;6293531;22;20034;-65
2022/10/24 07:46:12;;;;;;;28.88;21.00;;;14.70;99.90;;;;;;6289740;22;19999;-65
2022/10/24 07:48:38;;;;;;;28.92;21.10;;;14.70;99.90;;;;;;6285174;22;20039;-64
2022/10/24 07:51:13;;;;;;;29.75;21.17;;;14.70;99.90;;;;;;6284889;22;20007;-66
2022/10/24 07:53:39;;;;;;;31.58;20.92;;;14.70;99.90;;;;;;6289963;22;20010;-65
2022/10/24 07:56:08;;;;;;;32.85;21.85;;;14.70;99.90;;;;;;6289278;22;20075;-65
2022/10/24 07:58:34;;;;;;;36.72;22.92;;;14.80;99.90;;;;;;6291720;22;20431;-64
2022/10/24 08:01:05;;;;;;;31.88;21.73;;;14.80;99.90;;;;;;6287027;22;20481;-66
2022/10/24 08:03:31;;;;;;;35.25;22.45;;;14.80;99.90;;;;;;6289044;22;20096;-67
2022/10/24 08:05:57;;;;;;;32.70;21.83;;;14.90;99.90;;;;;;6294612;22;20011;-65
2022/10/24 08:08:23;;;;;;;34.25;23.20;;;14.80;99.90;;;;;;6290607;22;20029;-65
2022/10/24 08:10:49;;;;;;;35.67;22.20;;;14.80;99.90;;;;;;6291116;22;20049;-66
2022/10/24 08:13:14;;;;;;;32.33;22.73;;;14.80;99.90;;;;;;6293120;22;20007;-65
2022/10/24 08:15:40;;;;;;;34.55;22.85;;;14.90;99.90;;;;;;6266312;22;20102;-65
2022/10/24 08:18:05;;;;;;;38.15;23.98;;;14.90;99.90;;;;;;6293834;22;20011;-65
2022/10/24 08:20:31;;;;;;;34.67;22.83;;;14.80;99.90;;;;;;6292300;22;20026;-65
2022/10/24 08:22:57;;;;;;;38.22;23.63;;;14.80;99.90;;;;;;6291312;22;20667;-66
2022/10/24 08:25:22;;;;;;;32.40;21.45;;;14.90;99.90;;;;;;6294178;22;20301;-65
2022/10/24 08:27:48;;;;;;;31.50;21.92;;;14.90;99.90;;;;;;6294044;22;20345;-65
2022/10/24 08:30:13;;;;;;;29.65;21.30;;;14.90;99.90;;;;;;6293576;22;20092;-65
2022/10/24 08:32:39;;;;;;;32.08;21.35;;;14.90;99.90;;;;;;6294756;22;20000;-65
2022/10/24 08:35:06;;;;;;;32.33;22.45;;;14.90;99.90;;;;;;6295143;22;20855;-66
2022/10/24 08:37:36;;;;;;;34.78;24.33;;;14.90;99.90;;;;;;6295061;22;20011;-65
2022/10/24 08:40:05;;;;;;;31.60;21.98;;;14.90;99.90;;;;;;6295667;22;20007;-65
2022/10/24 08:42:32;;;;;;;32.95;21.88;;;14.90;99.90;;;;;;6294094;22;20110;-66
2022/10/24 08:44:58;;;;;;;32.80;22.77;;;14.80;99.90;;;;;;6292928;22;20063;-66
2022/10/24 08:47:47;;;;;;;29.60;20.88;;;14.80;99.90;;;;;;6292588;22;20023;-66
2022/10/24 08:50:28;;;;;;;28.38;20.98;;;14.80;99.90;;;;;;6295085;22;19999;-66
2022/10/24 08:53:10;;;;;;;27.48;19.98;;;14.90;99.90;;;;;;6292826;22;20796;-66
2022/10/24 08:55:44;;;;;;;24.73;19.42;;;14.90;99.90;;;;;;6295591;22;19999;-66
2022/10/24 08:58:18;;;;;;;26.25;18.42;;;14.90;99.90;;;;;;6266365;22;20440;-65
2022/10/24 09:00:47;;;;;;;24.73;18.13;;;14.80;99.90;;;;;;6292214;22;20003;-65
2022/10/24 09:03:30;;;;;;;27.70;19.38;;;14.80;99.90;;;;;;6288755;22;20029;-66
2022/10/24 09:06:04;;;;;;;25.65;18.80;;;14.80;99.90;;;;;;6286231;22;20530;-65
2022/10/24 09:08:33;;;;;;;27.42;18.00;;;14.90;99.90;;;;;;6290771;22;20065;-65
2022/10/24 09:11:01;;;;;;;28.98;18.90;;;14.90;99.90;;;;;;6292122;22;19995;-65
2022/10/24 09:13:28;;;;;;;25.30;18.98;;;14.90;99.90;;;;;;6292729;22;20030;-76
2022/10/24 09:15:54;;;;;;;20.05;16.80;;;14.90;99.90;;;;;;6294031;22;20053;-76
2022/10/24 09:18:21;;;;;;;24.65;18.05;;;14.90;99.90;;;;;;6295731;22;20011;-75
2022/10/24 09:20:49;;;;;;;22.70;18.23;;;14.90;99.90;;;;;;6290003;22;20292;-77
2022/10/24 09:23:16;;;;;;;21.58;16.17;;;15.00;99.90;;;;;;6290497;22;20299;-76
2022/10/24 09:25:48;;;;;;;23.00;17.23;;;15.00;99.90;;;;;;6295659;22;20460;-76
2022/10/24 09:28:14;;;;;;;20.23;16.55;;;15.00;99.90;;;;;;6294970;22;20007;-76
2022/10/24 09:30:40;;;;;;;22.15;15.77;;;15.10;99.90;;;;;;6296592;22;20052;-75
2022/10/24 09:33:18;;;;;;;20.90;15.70;;;15.10;99.90;;;;;;6297161;22;20265;-76
2022/10/24 09:35:44;;;;;;;19.15;15.77;;;15.20;99.90;;;;;;6295492;22;20004;-76
2022/10/24 09:38:21;;;;;;;21.40;16.67;;;15.20;99.90;;;;;;6294894;22;19995;-76
2022/10/24 09:40:53;;;;;;;20.83;16.08;;;15.20;99.90;;;;;;6297161;22;20003;-76
2022/10/24 09:43:43;;;;;;;23.08;17.40;;;15.20;99.90;;;;;;6295603;22;20015;-76
2022/10/24 09:46:17;;;;;;;22.58;16.17;;;15.20;99.90;;;;;;6295539;22;20060;-76
2022/10/24 09:48:48;;;;;;;20.52;15.80;;;15.20;99.90;;;;;;6297899;22;20306;-77
2022/10/24 09:51:36;;;;;;;20.38;16.65;;;15.20;99.90;;;;;;6294887;22;20139;-75
2022/10/24 09:54:04;;;;;;;21.58;16.63;;;15.30;99.90;;;;;;6295355;22;20003;-74
2022/10/24 09:56:38;;;;;;;20.05;16.15;;;15.30;99.90;;;;;;6268444;22;20324;-74
2022/10/24 09:59:27;;;;;;;21.92;17.15;;;15.40;99.90;;;;;;6267991;22;20007;-77
2022/10/24 10:02:03;;;;;;;23.17;16.95;;;15.50;99.90;;;;;;6245613;22;20027;-75
2022/10/24 10:04:29;;;;;;;22.58;17.08;;;15.50;99.90;;;;;;6296060;22;20404;-75
2022/10/24 10:06:54;;;;;;;20.48;16.85;;;15.50;99.90;;;;;;6269016;22;20011;-72
2022/10/24 10:09:27;;;;;;;21.67;16.65;;;15.50;99.90;;;;;;6293363;22;20433;-77
2022/10/24 10:11:57;;;;;;;19.40;15.23;;;15.60;99.90;;;;;;6296506;22;20705;-75
2022/10/24 10:14:28;;;;;;;20.73;16.02;;;15.60;99.90;;;;;;6295747;22;20428;-78
2022/10/24 10:17:06;;;;;;;21.00;14.82;;;15.60;99.90;;;;;;6295967;22;20003;-77
2022/10/24 10:19:36;;;;;;;20.77;15.50;;;15.60;99.90;;;;;;6294318;22;20086;-78
2022/10/24 10:22:05;;;;;;;17.48;14.18;;;15.60;99.90;;;;;;6266707;22;20087;-76
2022/10/24 10:24:42;;;;;;;17.17;14.10;;;15.60;99.90;;;;;;6268811;22;20003;-77
2022/10/24 10:27:32;;;;;;;17.30;13.40;;;15.70;99.90;;;;;;6295429;22;20080;-73
2022/10/24 10:30:13;;;;;;;17.00;14.20;;;15.80;99.90;;;;;;6294438;22;20011;-64
2022/10/24 10:33:15;;;;;;;21.70;14.65;;;15.80;99.90;;;;;;6294158;22;20006;-64
2022/10/24 10:35:57;;;;;;;19.38;15.38;;;15.80;99.90;;;;;;6267030;22;20517;-65
2022/10/24 10:38:45;;;;;;;19.83;14.05;;;15.90;99.90;;;;;;6295391;22;20843;-64
2022/10/24 10:41:20;;;;;;;20.88;15.73;;;15.90;99.90;;;;;;6295952;22;20006;-64
2022/10/24 10:44:11;;;;;;;25.83;21.30;;;15.90;99.90;;;;;;6295199;22;20322;-64
2022/10/24 10:47:09;;;;;;;18.50;15.73;;;15.90;99.90;;;;;;6295099;22;19999;-64
2022/10/24 10:49:41;;;;;;;20.42;15.32;;;15.90;99.90;;;;;;6294867;22;20081;-64
2022/10/24 10:52:30;;;;;;;21.00;15.10;;;16.00;99.90;;;;;;6294802;22;20000;-64
2022/10/24 10:55:23;;;;;;;18.50;13.52;;;15.90;99.90;;;;;;6296234;22;19995;-64
2022/10/24 10:58:24;;;;;;;19.08;13.82;;;15.90;99.90;;;;;;6295393;22;20018;-65
2022/10/24 11:01:22;;;;;;;18.20;13.23;;;15.90;99.90;;;;;;6294853;22;20011;-65
2022/10/24 11:04:09;;;;;;;18.92;13.82;;;15.90;99.90;;;;;;6296355;22;20100;-65
2022/10/24 11:06:37;;;;;;;15.57;13.07;;;16.00;99.90;;;;;;6294539;22;19995;-64
2022/10/24 11:09:21;;;;;;;19.02;13.80;;;15.90;99.90;;;;;;6293855;22;19999;-64
2022/10/24 11:12:13;;;;;;;18.35;14.35;;;15.90;99.90;;;;;;6295676;22;20169;-65
2022/10/24 11:14:43;;;;;;;19.23;15.13;;;15.90;99.90;;;;;;6237514;22;20449;-64
2022/10/24 11:17:26;;;;;;;17.55;13.88;;;15.80;99.90;;;;;;6298572;22;20439;-64
2022/10/24 11:20:14;;;;;;;15.10;13.50;;;15.90;99.90;;;;;;6297482;22;20318;-64
2022/10/24 11:22:57;;;;;;;16.70;13.50;;;16.00;99.90;;;;;;6296363;22;20465;-65
2022/10/24 11:25:40;;;;;;;30.63;20.50;;;16.10;99.90;;;;;;6298142;22;20064;-66
2022/10/24 11:28:11;;;;;;;35.55;27.02;;;16.10;99.90;;;;;;6296081;22;19999;-66
2022/10/24 11:31:02;;;;;;;18.03;14.43;;;16.10;99.90;;;;;;6297212;22;20076;-66
2022/10/24 11:33:44;;;;;;;15.77;12.75;;;16.30;99.90;;;;;;6269919;22;20501;-66
2022/10/24 11:36:14;;;;;;;19.27;13.93;;;16.20;99.90;;;;;;6297063;22;20007;-66
2022/10/24 11:39:09;;;;;;;19.13;15.23;;;16.20;99.90;;;;;;6298340;22;20007;-66
2022/10/24 11:41:43;;;;;;;18.70;14.25;;;16.20;99.90;;;;;;6297578;22;20042;-66
2022/10/24 11:44:33;;;;;;;16.63;13.32;;;16.20;99.90;;;;;;6270417;22;20811;-66
2022/10/24 11:47:21;;;;;;;20.17;14.73;;;16.30;99.90;;;;;;6298721;22;20314;-78
2022/10/24 11:49:52;;;;;;;16.40;13.40;;;16.20;99.90;;;;;;6296319;22;20502;-78
2022/10/24 11:52:27;;;;;;;18.85;13.43;;;16.20;99.90;;;;;;6288201;22;20015;-79
2022/10/24 11:55:16;;;;;;;18.95;14.27;;;16.20;99.90;;;;;;6295410;22;20014;-79
2022/10/24 11:57:50;;;;;;;17.35;14.20;;;16.20;99.90;;;;;;6297135;22;20006;-79
2022/10/24 12:00:20;;;;;;;21.25;15.25;;;16.20;99.90;;;;;;6293132;22;20452;-78
2022/10/24 12:02:57;;;;;;;19.65;15.38;;;16.20;99.90;;;;;;6288752;22;20015;-79
2022/10/24 12:06:04;;;;;;;21.42;15.60;;;16.20;99.90;;;;;;6292172;22;20014;-79
2022/10/24 12:08:51;;;;;;;19.42;14.68;;;16.30;99.90;;;;;;6139131;23;20012;-80
2022/10/24 12:11:35;;;;;;;26.17;17.25;;;16.30;99.90;;;;;;6133903;23;20123;-78
2022/10/24 12:14:10;;;;;;;23.40;16.90;;;16.20;99.90;;;;;;6246850;22;20015;-79
2022/10/24 12:16:51;;;;;;;25.08;17.95;;;16.20;99.90;;;;;;6291359;22;20003;-79
2022/10/24 12:19:19;;;;;;;23.60;17.73;;;16.10;99.90;;;;;;6292213;22;20025;-79
2022/10/24 12:22:00;;;;;;;25.33;19.20;;;16.10;99.90;;;;;;6290022;22;20046;-77
2022/10/24 12:24:37;;;;;;;23.00;18.13;;;16.00;99.90;;;;;;6294086;22;20088;-80
2022/10/24 12:27:34;;;;;;;29.83;20.27;;;16.00;99.90;;;;;;6289782;22;20621;-77
2022/10/24 12:30:23;;;;;;;29.90;19.90;;;16.00;99.90;;;;;;6289554;22;20591;-78
2022/10/24 12:32:56;;;;;;;28.13;20.42;;;16.00;99.90;;;;;;6297216;22;20003;-78
2022/10/24 12:35:25;;;;;;;33.20;21.52;;;16.00;99.90;;;;;;6294076;22;20096;-78
2022/10/24 12:37:51;;;;;;;32.53;22.23;;;15.90;99.90;;;;;;6295581;22;20340;-78
2022/10/24 12:40:46;;;;;;;32.42;22.10;;;15.90;99.90;;;;;;6297865;22;19999;-78
2022/10/24 12:43:30;;;;;;;28.60;21.08;;;16.00;99.90;;;;;;6272453;22;20045;-80
2022/10/24 12:46:00;;;;;;;33.42;21.45;;;16.00;99.90;;;;;;6275625;22;20038;-78
2022/10/24 12:48:36;;;;;;;30.25;20.15;;;16.00;99.90;;;;;;6303896;22;19999;-78